General Francisco J Mujica International Airport
MMMM : now visible

Airfield :











YOU CAN JOIN US ON...

 
LOGIN :

Register | Disclaimer

   EN    FR    IT 

 









Legend :    VFR   Marginal VFR   IFR   Intensive IFR   Very Intensive IFR
Visi :
Ceiling :
>= 8 km
>= 3000ft
5 to 8 km
1000 to 3000 ft
1500m to 5 km
500 to 1000 ft
800 to 1500m
200 to 500 ft
< 800m
< 200 ft
Symbols :   Thunderstorms  Fog  Heavy snow  Heavy precipitations  Wind > 20 kt






- Airport Elevation : 6033 ft
- IATA code : MLM


MMMM - General Francisco J Mujica International

CURRENT METAR :
  • 271045Z 00000KT 6SM SKC 07/03 A3026 RMK HZY

EXPIRED METARs :
  • 270945Z 00000KT 7SM SKC 08/03 A3026 RMK HZY CI
  • 270849Z 34004KT 7SM SKC 09/03 A3026 RMK SLP129 52011 941 SC

TAF TAF MMMM
Valid from the 27 at 12:00 until the 28 at 18:00 UTC


271100Z 2712/2818 00000KT 6SM HZ SKC
FM271800 06010KT P6SM SCT030 SCT100
FM280600 00000KT P6SM SKC
FM281700 09012KT P6SM SCT030 SCT090



MET'MAP, your aeronautical weather chart ! - Copyright ORBIFLY December 2007 - Disclaimer

ORBIFLY MET'MAP TEAM :

Programming & Development : Alexandra Zaïnal
Concept & original design : Baudouin d'Aumeries
Assistance for programming : Marc-Olivier Méhu
Technical & hardware support : Manuel Goepfert

Contact : metmap@orbifly.com




SOURCES & CREDITS :

   NOAA       Earth
Advisory